createdAt,value
2022-10-13T00:01:20.155Z,13.70
2022-10-13T00:03:47.993Z,13.00
2022-10-13T00:06:24.009Z,14.30
2022-10-13T00:08:51.844Z,13.10
2022-10-13T00:11:23.605Z,13.90
2022-10-13T00:13:52.528Z,14.50
2022-10-13T00:16:22.200Z,13.10
2022-10-13T00:18:59.771Z,13.20
2022-10-13T00:21:28.672Z,15.60
2022-10-13T00:23:55.995Z,14.20
2022-10-13T00:26:25.506Z,14.20
2022-10-13T00:28:53.800Z,13.10
2022-10-13T00:31:29.925Z,13.10
2022-10-13T00:34:01.905Z,13.10
2022-10-13T00:36:29.934Z,13.40
2022-10-13T00:39:01.198Z,14.40
2022-10-13T00:41:28.125Z,13.10
2022-10-13T00:44:27.544Z,12.70
2022-10-13T00:46:54.478Z,13.80
2022-10-13T00:49:21.407Z,13.70
2022-10-13T00:51:50.638Z,14.90
2022-10-13T00:54:24.793Z,15.10
2022-10-13T00:56:53.909Z,13.00
2022-10-13T00:59:29.326Z,13.50
2022-10-13T01:01:59.804Z,13.10
2022-10-13T01:04:34.293Z,14.00
2022-10-13T01:07:03.259Z,13.00
2022-10-13T01:09:37.895Z,14.90
2022-10-13T01:12:26.710Z,13.00
2022-10-13T01:15:22.650Z,13.00
2022-10-13T01:18:11.518Z,12.00
2022-10-13T01:21:08.122Z,13.00
2022-10-13T01:24:20.912Z,13.10
2022-10-13T01:27:08.381Z,13.10
2022-10-13T01:30:09.210Z,13.10
2022-10-13T01:32:49.161Z,13.10
2022-10-13T01:35:40.408Z,13.10
2022-10-13T01:38:31.066Z,13.20
2022-10-13T01:41:10.908Z,13.20
2022-10-13T01:43:51.725Z,13.20
2022-10-13T01:46:32.155Z,13.30
2022-10-13T01:49:05.308Z,13.50
2022-10-13T01:51:34.702Z,14.30
2022-10-13T01:54:01.692Z,13.40
2022-10-13T01:56:28.978Z,13.50
2022-10-13T01:59:02.178Z,13.70
2022-10-13T02:02:01.635Z,13.30
2022-10-13T02:04:48.358Z,13.50
2022-10-13T02:07:35.020Z,11.80
2022-10-13T02:10:14.668Z,13.50
2022-10-13T02:13:00.998Z,13.50
2022-10-13T02:15:40.779Z,13.50
2022-10-13T02:18:13.674Z,13.80
2022-10-13T02:20:45.992Z,13.80
2022-10-13T02:23:17.527Z,15.20
2022-10-13T02:25:47.580Z,13.60
2022-10-13T02:28:16.641Z,15.30
2022-10-13T02:30:46.246Z,14.00
2022-10-13T02:33:15.062Z,14.40
2022-10-13T02:35:43.089Z,13.70
2022-10-13T02:38:10.488Z,13.70
2022-10-13T02:40:39.240Z,14.30
2022-10-13T02:43:06.185Z,13.70
2022-10-13T02:45:33.048Z,13.80
2022-10-13T02:48:00.319Z,13.80
2022-10-13T02:50:27.226Z,13.80
2022-10-13T02:52:56.691Z,13.80
2022-10-13T02:55:23.530Z,15.10
2022-10-13T02:57:56.717Z,13.80
2022-10-13T03:00:23.869Z,13.80
2022-10-13T03:02:50.658Z,13.80
2022-10-13T03:05:17.727Z,16.10
2022-10-13T03:07:44.733Z,13.80
2022-10-13T03:10:11.611Z,14.90
2022-10-13T03:12:38.795Z,15.10
2022-10-13T03:15:06.287Z,13.90
2022-10-13T03:17:33.109Z,13.90
2022-10-13T03:20:00.013Z,15.20
2022-10-13T03:22:26.885Z,13.90
2022-10-13T03:24:56.903Z,16.00
2022-10-13T03:27:25.282Z,13.80
2022-10-13T03:29:52.158Z,13.90
2022-10-13T03:32:19.317Z,13.90
2022-10-13T03:34:46.401Z,13.90
2022-10-13T03:37:13.441Z,13.90
2022-10-13T03:39:41.984Z,14.00
2022-10-13T03:42:10.231Z,13.90
2022-10-13T03:44:39.047Z,13.90
2022-10-13T03:47:05.958Z,15.90
2022-10-13T03:49:32.851Z,13.90
2022-10-13T03:51:59.676Z,13.90
2022-10-13T03:54:28.911Z,13.90
2022-10-13T03:56:57.538Z,14.10
2022-10-13T03:59:24.606Z,14.00
2022-10-13T04:01:51.479Z,13.80
2022-10-13T04:04:19.491Z,13.90
2022-10-13T04:06:47.446Z,13.90
2022-10-13T04:09:14.376Z,13.80
2022-10-13T04:11:41.388Z,13.90
2022-10-13T04:14:08.343Z,13.90
2022-10-13T04:16:35.166Z,12.40
2022-10-13T04:19:05.289Z,13.90
2022-10-13T04:21:34.969Z,13.90
2022-10-13T04:24:03.508Z,13.90
2022-10-13T04:26:35.242Z,16.00
2022-10-13T04:29:09.901Z,13.90
2022-10-13T04:31:39.009Z,15.50
2022-10-13T04:34:05.979Z,13.90
2022-10-13T04:36:32.915Z,16.00
2022-10-13T04:38:59.881Z,14.00
2022-10-13T04:41:26.909Z,14.00
2022-10-13T04:43:54.390Z,14.00
2022-10-13T04:46:26.908Z,14.00
2022-10-13T04:48:56.994Z,14.50
2022-10-13T04:51:30.289Z,15.30
2022-10-13T04:54:01.668Z,14.00
2022-10-13T04:56:30.002Z,15.90
2022-10-13T04:59:05.188Z,16.00
2022-10-13T05:01:33.280Z,15.50
2022-10-13T05:04:04.333Z,15.70
2022-10-13T05:06:53.388Z,14.10
2022-10-13T05:09:26.287Z,15.90
2022-10-13T05:11:55.097Z,14.80
2022-10-13T05:14:23.059Z,14.10
2022-10-13T05:16:49.990Z,16.10
2022-10-13T05:19:16.908Z,15.90
2022-10-13T05:21:43.706Z,14.00
2022-10-13T05:24:13.584Z,14.10
2022-10-13T05:26:41.825Z,15.60
2022-10-13T05:29:08.967Z,16.50
2022-10-13T05:31:36.792Z,16.00
2022-10-13T05:34:04.011Z,14.10
2022-10-13T05:36:35.001Z,14.10
2022-10-13T05:39:06.324Z,15.50
2022-10-13T05:41:33.694Z,15.50
2022-10-13T05:44:07.493Z,16.30
2022-10-13T05:46:34.935Z,14.30
2022-10-13T05:49:01.913Z,14.00
2022-10-13T05:51:36.908Z,14.10
2022-10-13T05:54:21.506Z,15.30
2022-10-13T05:56:55.027Z,14.00
2022-10-13T05:59:27.249Z,15.30
2022-10-13T06:01:55.004Z,14.00
2022-10-13T06:04:34.566Z,14.10
2022-10-13T06:07:01.584Z,15.10
2022-10-13T06:09:35.765Z,13.90
2022-10-13T06:12:02.822Z,14.10
2022-10-13T06:14:32.033Z,16.10
2022-10-13T06:17:00.127Z,14.10
2022-10-13T06:19:27.093Z,16.60
2022-10-13T06:21:53.962Z,14.10
2022-10-13T06:24:20.922Z,14.20
2022-10-13T06:26:48.075Z,15.90
2022-10-13T06:29:15.145Z,14.30
2022-10-13T06:31:42.186Z,14.20
2022-10-13T06:34:10.052Z,15.60
2022-10-13T06:36:36.906Z,14.30
2022-10-13T06:39:04.063Z,14.30
2022-10-13T06:41:33.647Z,14.30
2022-10-13T06:44:00.642Z,14.30
2022-10-13T06:46:30.779Z,14.30
2022-10-13T06:48:57.906Z,14.40
2022-10-13T06:51:25.113Z,16.50
2022-10-13T06:53:52.057Z,16.00
2022-10-13T06:56:24.347Z,15.70
2022-10-13T06:58:51.298Z,16.10
2022-10-13T07:01:18.149Z,14.60
2022-10-13T07:03:49.125Z,14.70
2022-10-13T07:06:20.150Z,15.80
2022-10-13T07:08:48.749Z,15.90
2022-10-13T07:11:18.612Z,14.80
2022-10-13T07:13:53.940Z,16.40
2022-10-13T07:16:20.916Z,14.90
2022-10-13T07:18:48.820Z,15.30
2022-10-13T07:21:16.118Z,14.90
2022-10-13T07:23:43.488Z,15.00
2022-10-13T07:26:14.155Z,15.00
2022-10-13T07:28:41.904Z,15.00
2022-10-13T07:31:16.356Z,15.10
2022-10-13T07:33:46.704Z,15.10
2022-10-13T07:36:18.090Z,15.20
2022-10-13T07:38:45.991Z,15.20
2022-10-13T07:41:16.364Z,15.90
2022-10-13T07:43:43.634Z,15.40
2022-10-13T07:46:15.807Z,16.20
2022-10-13T07:48:42.969Z,15.90
2022-10-13T07:51:13.523Z,15.50
2022-10-13T07:53:43.280Z,16.10
2022-10-13T07:56:13.504Z,17.60
2022-10-13T07:58:47.416Z,17.60
2022-10-13T08:01:16.474Z,15.80
2022-10-13T08:03:48.863Z,17.40
2022-10-13T08:06:19.029Z,16.00
2022-10-13T08:08:46.046Z,16.10
2022-10-13T08:11:17.808Z,16.10
2022-10-13T08:13:51.946Z,16.20
2022-10-13T08:16:23.197Z,16.30
2022-10-13T08:18:50.617Z,17.00
2022-10-13T08:24:12.577Z,17.70
2022-10-13T08:26:40.194Z,16.60
2022-10-13T08:29:21.308Z,16.80
2022-10-13T08:34:23.706Z,16.90
2022-10-13T08:36:54.255Z,17.10
2022-10-13T08:39:24.215Z,17.70
2022-10-13T08:41:52.277Z,18.20
2022-10-13T08:47:52.460Z,17.50
2022-10-13T08:50:28.284Z,17.60
2022-10-13T08:53:24.279Z,17.70
2022-10-13T08:56:25.559Z,17.70
2022-10-13T08:58:56.542Z,17.90
2022-10-13T09:01:30.275Z,19.30
2022-10-13T09:04:25.757Z,17.90
2022-10-13T09:07:21.457Z,17.90
2022-10-13T09:09:54.656Z,18.00
2022-10-13T09:12:26.033Z,18.00
2022-10-13T09:15:10.318Z,19.60
2022-10-13T09:17:41.394Z,18.10
2022-10-13T09:20:28.846Z,18.10
2022-10-13T09:23:23.084Z,18.20
2022-10-13T09:25:52.590Z,18.20
2022-10-13T09:28:33.073Z,18.20
2022-10-13T09:31:17.146Z,18.20
2022-10-13T09:33:45.435Z,18.00
2022-10-13T09:36:16.631Z,18.20
2022-10-13T09:39:14.201Z,18.20
2022-10-13T09:41:43.785Z,18.20
2022-10-13T09:44:31.842Z,18.90
2022-10-13T09:47:04.305Z,18.80
2022-10-13T09:49:42.728Z,18.40
2022-10-13T09:52:12.378Z,18.20
2022-10-13T09:54:52.509Z,18.20
2022-10-13T09:57:51.505Z,19.20
2022-10-13T10:00:25.286Z,18.10
2022-10-13T10:03:04.141Z,18.00
2022-10-13T10:05:50.649Z,17.90
2022-10-13T10:09:04.606Z,17.80
2022-10-13T10:11:42.292Z,17.70
2022-10-13T10:14:31.041Z,17.70
2022-10-13T10:17:23.700Z,17.60
2022-10-13T10:20:27.498Z,17.50
2022-10-13T10:23:18.824Z,17.40
2022-10-13T10:26:05.739Z,17.40
2022-10-13T10:29:06.264Z,17.40
2022-10-13T10:32:00.415Z,17.40
2022-10-13T10:34:38.059Z,17.30
2022-10-13T10:37:46.498Z,17.40
2022-10-13T10:40:18.994Z,17.40
2022-10-13T10:43:26.345Z,17.40
2022-10-13T10:45:59.495Z,17.40
2022-10-13T10:48:39.969Z,18.70
2022-10-13T10:51:10.238Z,19.10
2022-10-13T10:53:52.939Z,17.80
2022-10-13T10:56:32.509Z,17.50
2022-10-13T10:59:57.725Z,17.60
2022-10-13T11:02:49.070Z,17.60
2022-10-13T11:05:17.370Z,17.70
2022-10-13T11:07:44.341Z,17.70
2022-10-13T11:10:14.070Z,17.70
2022-10-13T11:12:53.135Z,18.50
2022-10-13T11:15:28.683Z,18.90
2022-10-13T11:17:55.797Z,17.90
2022-10-13T11:20:24.929Z,17.90
2022-10-13T11:23:00.553Z,18.00
2022-10-13T11:25:42.168Z,19.60
2022-10-13T11:28:21.231Z,18.00
2022-10-13T11:30:55.383Z,18.50
2022-10-13T11:33:51.132Z,17.90
2022-10-13T11:36:54.825Z,17.90
2022-10-13T11:39:28.107Z,17.90
2022-10-13T11:42:25.923Z,18.70
2022-10-13T11:45:23.441Z,17.80
2022-10-13T11:48:40.025Z,17.80
2022-10-13T11:51:34.015Z,17.80
2022-10-13T11:54:18.922Z,17.80
2022-10-13T11:56:54.204Z,17.80
2022-10-13T11:59:31.185Z,19.10
2022-10-13T12:02:19.127Z,17.80
2022-10-13T12:05:06.534Z,17.70
2022-10-13T12:07:43.917Z,17.70
2022-10-13T12:10:31.096Z,18.30
2022-10-13T12:13:01.596Z,17.60
2022-10-13T12:15:43.180Z,17.60
2022-10-13T12:18:27.672Z,17.60
2022-10-13T12:21:00.413Z,17.60
2022-10-13T12:23:28.640Z,17.60
2022-10-13T12:25:59.084Z,17.50
2022-10-13T12:28:56.706Z,19.70
2022-10-13T12:31:31.084Z,17.50
2022-10-13T12:34:02.775Z,17.50
2022-10-13T12:36:35.419Z,17.50
2022-10-13T12:39:14.285Z,17.40
2022-10-13T12:41:46.487Z,18.70
2022-10-13T12:44:20.085Z,18.60
2022-10-13T12:46:56.027Z,17.50
2022-10-13T12:49:32.546Z,17.40
2022-10-13T12:52:24.916Z,17.30
2022-10-13T12:54:58.006Z,18.50
2022-10-13T12:57:38.373Z,18.00
2022-10-13T13:00:18.597Z,17.20
2022-10-13T13:03:01.481Z,17.30
2022-10-13T13:05:40.095Z,17.20
2022-10-13T13:08:27.657Z,17.20
2022-10-13T13:11:07.827Z,17.20
2022-10-13T13:13:35.099Z,17.20
2022-10-13T13:16:23.432Z,17.40
2022-10-13T13:18:51.174Z,17.20
2022-10-13T13:21:20.268Z,17.20
2022-10-13T13:23:52.798Z,17.20
2022-10-13T13:26:24.467Z,17.20
2022-10-13T13:28:55.034Z,17.20
2022-10-13T13:31:25.678Z,17.20
2022-10-13T13:33:52.982Z,17.20
2022-10-13T13:36:25.804Z,17.20
2022-10-13T13:38:55.856Z,17.20
2022-10-13T13:41:24.003Z,17.10
2022-10-13T13:43:50.825Z,17.10
2022-10-13T13:46:22.965Z,17.10
2022-10-13T13:48:50.347Z,17.10
2022-10-13T13:51:17.831Z,17.10
2022-10-13T13:53:46.237Z,17.20
2022-10-13T13:56:17.019Z,17.20
2022-10-13T13:58:44.772Z,17.20
2022-10-13T14:01:13.967Z,17.20
2022-10-13T14:03:41.200Z,18.90
2022-10-13T14:06:08.999Z,17.20
2022-10-13T14:08:42.234Z,17.30
2022-10-13T14:11:10.381Z,17.30
2022-10-13T14:13:37.420Z,17.30
2022-10-13T14:16:05.147Z,17.30
2022-10-13T14:18:32.370Z,17.30
2022-10-13T14:20:59.539Z,17.40
2022-10-13T14:23:26.383Z,17.40
2022-10-13T14:25:53.607Z,17.50
2022-10-13T14:28:20.789Z,17.50
2022-10-13T14:30:47.859Z,17.50
2022-10-13T14:33:19.264Z,17.50
2022-10-13T14:35:47.069Z,17.50
2022-10-13T14:38:16.413Z,17.60
2022-10-13T14:40:44.515Z,17.60
2022-10-13T14:43:11.367Z,17.60
2022-10-13T14:45:38.246Z,18.50
2022-10-13T14:48:06.170Z,17.80
2022-10-13T14:50:34.299Z,17.80
2022-10-13T14:53:01.127Z,17.80
2022-10-13T14:55:28.896Z,19.90
2022-10-13T14:57:55.897Z,17.90
2022-10-13T15:00:22.721Z,19.70
2022-10-13T15:02:49.686Z,17.90
2022-10-13T15:05:16.666Z,19.80
2022-10-13T15:07:43.607Z,19.30
2022-10-13T15:10:10.748Z,18.00
2022-10-13T15:12:37.808Z,18.00
2022-10-13T15:15:05.845Z,18.00
2022-10-13T15:17:33.816Z,18.00
2022-10-13T15:20:00.627Z,17.90
2022-10-13T15:22:27.532Z,18.20
2022-10-13T15:24:54.456Z,17.90
2022-10-13T15:27:21.325Z,17.80
2022-10-13T15:29:48.447Z,17.90
2022-10-13T15:32:18.746Z,17.80
2022-10-13T15:34:50.918Z,17.80
2022-10-13T15:37:17.774Z,17.70
2022-10-13T15:39:44.742Z,17.70
2022-10-13T15:42:12.235Z,17.70
2022-10-13T15:47:25.923Z,18.40
2022-10-13T15:49:52.773Z,17.60
2022-10-13T15:52:19.989Z,17.60
2022-10-13T15:54:51.157Z,18.30
2022-10-13T15:57:18.249Z,17.50
2022-10-13T15:59:45.054Z,17.40
2022-10-13T16:02:11.856Z,18.90
2022-10-13T16:04:38.770Z,17.40
2022-10-13T16:07:05.677Z,17.30
2022-10-13T16:09:32.526Z,18.20
2022-10-13T16:11:59.601Z,19.30
2022-10-13T16:14:26.418Z,17.20
2022-10-13T16:16:53.397Z,18.70
2022-10-13T16:19:20.412Z,17.10
2022-10-13T16:21:47.416Z,17.70
2022-10-13T16:24:14.970Z,17.00
2022-10-13T16:26:41.864Z,17.00
2022-10-13T16:29:08.656Z,16.90
2022-10-13T16:31:35.655Z,16.80
2022-10-13T16:34:02.878Z,16.80
2022-10-13T16:36:30.142Z,16.80
2022-10-13T16:38:59.447Z,18.80
2022-10-13T16:41:26.325Z,16.70
2022-10-13T16:43:53.448Z,16.70
2022-10-13T16:46:20.940Z,17.80
2022-10-13T16:48:48.492Z,17.00
2022-10-13T16:51:22.882Z,16.60
2022-10-13T16:53:58.621Z,16.60
2022-10-13T16:56:28.842Z,16.60
2022-10-13T16:59:01.091Z,16.60
2022-10-13T17:01:28.994Z,16.60
2022-10-13T17:03:58.904Z,16.50
2022-10-13T17:06:28.634Z,17.40
2022-10-13T17:09:00.461Z,16.50
2022-10-13T17:11:31.774Z,16.70
2022-10-13T17:14:00.336Z,16.50
2022-10-13T17:16:32.346Z,16.50
2022-10-13T17:19:03.130Z,16.60
2022-10-13T17:21:33.669Z,16.50
2022-10-13T17:24:00.691Z,16.70
2022-10-13T17:26:27.504Z,16.90
2022-10-13T17:28:54.504Z,16.40
2022-10-13T17:31:23.961Z,16.40
2022-10-13T17:33:51.990Z,16.90
2022-10-13T17:36:27.129Z,17.40
2022-10-13T17:38:56.209Z,16.40
2022-10-13T17:41:24.535Z,18.40
2022-10-13T17:43:54.875Z,17.30
2022-10-13T17:46:37.059Z,18.40
2022-10-13T17:49:11.356Z,16.40
2022-10-13T17:51:40.377Z,16.30
2022-10-13T17:54:11.587Z,16.80
2022-10-13T17:56:42.466Z,16.30
2022-10-13T17:59:09.875Z,16.30
2022-10-13T18:01:37.936Z,16.30
2022-10-13T18:04:11.150Z,18.00
2022-10-13T18:06:40.580Z,16.30
2022-10-13T18:09:14.212Z,17.10
2022-10-13T18:11:48.757Z,16.30
2022-10-13T18:14:23.649Z,16.20
2022-10-13T18:16:54.071Z,16.20
2022-10-13T18:19:21.675Z,17.40
2022-10-13T18:21:49.370Z,17.00
2022-10-13T18:24:16.405Z,16.10
2022-10-13T18:26:43.239Z,16.10
2022-10-13T18:29:12.368Z,16.10
2022-10-13T18:31:41.323Z,16.10
2022-10-13T18:34:14.942Z,18.40
2022-10-13T18:36:49.290Z,16.00
2022-10-13T18:39:27.634Z,16.00
2022-10-13T18:41:57.411Z,16.00
2022-10-13T18:44:34.130Z,16.40
2022-10-13T18:47:01.059Z,15.90
2022-10-13T18:49:33.631Z,17.70
2022-10-13T18:52:02.055Z,17.10
2022-10-13T18:54:30.253Z,15.90
2022-10-13T18:56:57.655Z,15.90
2022-10-13T18:59:24.793Z,15.90
2022-10-13T19:01:51.849Z,18.00
2022-10-13T19:04:18.870Z,16.00
2022-10-13T19:06:46.353Z,15.90
2022-10-13T19:09:15.633Z,15.90
2022-10-13T19:11:42.748Z,15.90
2022-10-13T19:14:13.042Z,15.90
2022-10-13T19:16:43.477Z,16.00
2022-10-13T19:19:11.014Z,15.90
2022-10-13T19:21:39.503Z,14.50
2022-10-13T19:24:09.351Z,17.90
2022-10-13T19:26:37.672Z,15.90
2022-10-13T19:29:11.848Z,16.00
2022-10-13T19:31:41.330Z,16.70
2022-10-13T19:34:10.671Z,16.00
2022-10-13T19:36:42.167Z,16.00
2022-10-13T19:39:20.302Z,16.10
2022-10-13T19:41:49.691Z,16.00
2022-10-13T19:44:18.951Z,16.00
2022-10-13T19:46:47.730Z,16.70
2022-10-13T19:49:17.774Z,17.40
2022-10-13T19:51:46.252Z,16.00
2022-10-13T19:54:14.540Z,15.80
2022-10-13T19:56:47.562Z,16.00
2022-10-13T19:59:15.846Z,16.00
2022-10-13T20:01:42.796Z,17.20
2022-10-13T20:04:15.773Z,15.90
2022-10-13T20:06:43.952Z,17.30
2022-10-13T20:09:13.060Z,15.90
2022-10-13T20:11:51.295Z,17.70
2022-10-13T20:14:18.678Z,16.90
2022-10-13T20:16:45.557Z,15.90
2022-10-13T20:19:16.414Z,16.00
2022-10-13T20:21:47.908Z,16.80
2022-10-13T20:24:15.797Z,15.90
2022-10-13T20:26:42.663Z,15.90
2022-10-13T20:29:09.704Z,17.90
2022-10-13T20:31:36.999Z,16.00
2022-10-13T20:34:04.082Z,16.30
2022-10-13T20:36:34.818Z,16.00
2022-10-13T20:39:05.452Z,18.20
2022-10-13T20:41:34.110Z,18.70
2022-10-13T20:44:02.348Z,18.30
2022-10-13T20:46:32.582Z,16.00
2022-10-13T20:49:16.330Z,18.40
2022-10-13T20:51:44.356Z,15.90
2022-10-13T20:54:13.963Z,15.90
2022-10-13T20:56:41.893Z,16.00
2022-10-13T20:59:12.707Z,15.90
2022-10-13T21:01:39.639Z,15.90
2022-10-13T21:04:07.132Z,17.10
2022-10-13T21:06:35.654Z,16.80
2022-10-13T21:09:05.571Z,16.70
2022-10-13T21:11:33.321Z,16.50
2022-10-13T21:14:00.267Z,15.80
2022-10-13T21:16:28.441Z,16.30
2022-10-13T21:18:57.745Z,15.80
2022-10-13T21:21:29.552Z,15.90
2022-10-13T21:24:01.128Z,17.60
2022-10-13T21:26:30.788Z,15.80
2022-10-13T21:28:58.169Z,16.50
2022-10-13T21:31:26.848Z,15.90
2022-10-13T21:33:54.639Z,17.00
2022-10-13T21:36:31.259Z,18.20
2022-10-13T21:39:05.726Z,16.50
2022-10-13T21:41:33.371Z,16.90
2022-10-13T21:44:00.249Z,16.90
2022-10-13T21:46:34.025Z,15.80
2022-10-13T21:49:04.560Z,15.90
2022-10-13T21:51:38.746Z,15.90
2022-10-13T21:54:10.318Z,15.90
2022-10-13T21:56:39.086Z,17.90
2022-10-13T21:59:06.882Z,16.10
2022-10-13T22:01:34.653Z,17.30
2022-10-13T22:04:11.995Z,15.90
2022-10-13T22:06:39.497Z,16.00
2022-10-13T22:09:07.617Z,16.30
2022-10-13T22:11:39.068Z,16.30
2022-10-13T22:14:11.863Z,17.20
2022-10-13T22:16:43.516Z,15.90
2022-10-13T22:19:11.113Z,15.90
2022-10-13T22:21:43.048Z,15.90
2022-10-13T22:24:15.359Z,17.50
2022-10-13T22:26:44.473Z,17.30
2022-10-13T22:29:15.630Z,16.00
2022-10-13T22:31:43.474Z,15.90
2022-10-13T22:34:14.056Z,17.70
2022-10-13T22:36:44.841Z,16.90
2022-10-13T22:39:12.941Z,17.50
2022-10-13T22:41:39.757Z,16.70
2022-10-13T22:44:07.672Z,15.90
2022-10-13T22:46:37.537Z,15.90
2022-10-13T22:49:06.361Z,16.00
2022-10-13T22:51:35.994Z,15.80
2022-10-13T22:54:03.506Z,15.80
2022-10-13T22:56:33.811Z,15.80
2022-10-13T22:59:07.959Z,15.80
2022-10-13T23:01:35.935Z,15.80
2022-10-13T23:04:02.980Z,15.80
2022-10-13T23:06:33.825Z,15.80
2022-10-13T23:09:04.995Z,15.80
2022-10-13T23:11:32.158Z,15.70
2022-10-13T23:14:01.891Z,15.80
2022-10-13T23:16:29.281Z,16.60
2022-10-13T23:18:56.548Z,15.70
2022-10-13T23:21:27.638Z,16.90
2022-10-13T23:24:05.393Z,17.00
2022-10-13T23:26:34.294Z,15.80
2022-10-13T23:29:01.771Z,15.80
2022-10-13T23:31:29.851Z,15.70
2022-10-13T23:33:58.600Z,15.80
2022-10-13T23:36:29.432Z,15.90
2022-10-13T23:39:06.663Z,16.80
2022-10-13T23:41:34.132Z,16.10
2022-10-13T23:44:01.078Z,16.80
2022-10-13T23:46:28.361Z,15.80
2022-10-13T23:48:55.722Z,15.80
2022-10-13T23:51:25.590Z,15.80
2022-10-13T23:53:53.437Z,16.00
2022-10-13T23:56:20.422Z,15.90
2022-10-13T23:58:48.318Z,15.90
